Terminal Aerodrome Forecast
Issued by NWS Missoula, MT

Home | Current Version | Previous Version | Text Only | Print | Product List | Glossary On
Versions: 1 2 3 4 5 6 7 8 9 10 11 12
720
FTUS45 KMSO 291120
TAFBTM
TAF
KBTM 291120Z 2912/3012 15006KT P6SM SCT100
     FM300000 19008KT P6SM -SHRA BKN050=

USA.gov is the U.S. government's official web portal to all federal, state and local government web resources and services.